This is the latest recevied weather packets stored in our database for station/object PY2FLB-13. If no packets are shown the sender has not sent any weather packets the latest 10 day(s).
| Time | Temp. | Humidity | Pressure | Rain* | Wind** | Luminosity | Snow |
|---|---|---|---|---|---|---|---|
| 1777646903 | 29.44° C | 42% | 1016.2 hPa | - | - | - | - |
| 1777646604 | 28.89° C | 42% | 1016.3 hPa | - | - | - | - |
| 1777646303 | 28.89° C | 42% | 1016.4 hPa | - | - | - | - |
| 1777646003 | 28.89° C | 43% | 1016.5 hPa | - | - | - | - |
| 1777645703 | 28.89° C | 43% | 1016.5 hPa | - | - | - | - |
| 1777645403 | 28.89° C | 42% | 1016.6 hPa | - | - | - | - |
| 1777645103 | 28.33° C | 43% | 1016.7 hPa | - | - | - | - |
| 1777644804 | 28.33° C | 43% | 1016.6 hPa | - | - | - | - |
| 1777644503 | 28.33° C | 46% | 1016.9 hPa | - | - | - | - |
| 1777644203 | 27.22° C | 52% | 1017.1 hPa | - | - | - | - |
| 1777643904 | 27.22° C | 52% | 1017.2 hPa | - | - | - | - |
| 1777643603 | 27.78° C | 51% | 1017.2 hPa | - | - | - | - |
| 1777643303 | 27.22° C | 53% | 1017.3 hPa | - | - | - | - |
| 1777643004 | 27.22° C | 53% | 1017.4 hPa | - | - | - | - |
| 1777642703 | 27.22° C | 53% | 1017.5 hPa | - | - | - | - |
| 1777642403 | 26.67° C | 54% | 1017.7 hPa | - | - | - | - |
| 1777642103 | 26.67° C | 54% | 1017.7 hPa | - | - | - | - |
| 1777641803 | 26.67° C | 54% | 1017.8 hPa | - | - | - | - |
| 1777641504 | 26.11° C | 55% | 1017.9 hPa | - | - | - | - |
| 1777641204 | 26.67° C | 54% | 1017.8 hPa | - | - | - | - |
| 1777640903 | 26.67° C | 55% | 1017.9 hPa | - | - | - | - |
| 1777640603 | 26.11° C | 55% | 1017.9 hPa | - | - | - | - |
| 1777640303 | 26.11° C | 56% | 1017.8 hPa | - | - | - | - |
| 1777640003 | 26.11° C | 57% | 1017.8 hPa | - | - | - | - |
| 1777639703 | 26.11° C | 57% | 1017.8 hPa | - | - | - | - |
* Rain since midnight (hover to see other rain measurements)
** Current wind speed in m/s (hover to see current wind gust speed)